Aérodrome :
LOGIN :

S'inscrire | Disclaimer

   EN    FR    IT 

 










Légende :    VFR   VFR Marginal   IFR   IFR Intensif   IFR Très Intensif
Visi : 
Plafond : 
>= 8 km
>= 3000ft
5 à 8 km
1000 à 3000 ft
1500m à 5 km
500 à 1000 ft
800 à 1500m
200 à 500 ft
< 800m
< 200 ft
Symboles :   Orages  Brouillard  Fortes neiges  Fortes précipitations  Vent > 20 kt
SIGMETs :   Divers  Orages  Givrage  Turbulence  Onde Orograph.  Cendres Volcan.







- Altitude de l'aérodrome : 270 ft
- Code IATA : OXF
- Voir les cartes d'approche


EGTK - Oxford (Kidlington)

DERNIER METAR :
  • 200650Z 32006KT 290V360 4500 -RA FEW008 BKN013 OVC015 13/12 Q1010

METARs EXPIRÉS :
  • 200620Z 22011KT 9999 3500W -RA BKN013 OVC016 16/15 Q1010
  • 200550Z 15003KT 9999 BKN015 OVC020 13/13 Q1010
  • 200520Z 12004KT 9999 BKN015 OVC018 13/12 Q1010

TAF TAF EGTK
Valide du 20 à 06h jusqu'au 20 à 15h UTC


200558Z 2006/2015 19005KT 9999 SCT015
TEMPO 2006/2012 5000 RADZ BKN007
PROB30
TEMPO 2006/2012 3000 +RA BKN004
TEMPO 2008/2015 20018G28KT
Pas de NOTAMs connus pour ce terrain.
1 SIGMET publié pour la FIR London (EGTT) :
 
Onde orographique forte
EGTT SIGMET 03 VALID 200500/200900 EGRR
EGTT LONDON FIR SEV MTW FCST WI N5407 E00000 - N5409 W00252 - N5500 W00500 - N5500 W00100 - N5500 E00001 - N5407 E00000 FL030/250 MOV N 10KT WKN=



MET'MAP, la Météo Aéronautique d'un coup d'oeil ! - Copyright ORBIFLY Décembre 2007 - Disclaimer

ORBIFLY MET'MAP TEAM :

Programmation & Développement : Alexandra Zaïnal
Conception & Développement : Baudouin d'Aumeries
Co-Programmation & Développement : Marc-Olivier Méhu
Soutien technique & logistique : Manuel Goepfert

Contact : metmap@orbifly.com




SOURCES & CREDITS :

   NOAA